Time;durP1;ratioP1;P1;durP2;ratioP2;P2;SDS_P1;SDS_P2;PMS_P1;PMS_P2;Temp;Humidity;BMP_temperature;BMP_pressure;BME280_temperature;BME280_humidity;BME280_pressure;Samples;Min_cycle;Max_cycle;Signal;HPM_P1;HPM_P2
2023/10/15 00:00:28;;;;;;;0.70;0.70;;;;;;;16.04;51.88;100690.94;4990630;28;20402;-79
2023/10/15 00:02:55;;;;;;;0.40;0.40;;;;;;;16.16;51.92;100696.50;5005824;28;20386;-81
2023/10/15 00:05:25;;;;;;;0.40;0.40;;;;;;;16.25;51.43;100685.38;4990305;28;20428;-79
2023/10/15 00:07:51;;;;;;;0.33;0.33;;;;;;;16.35;50.97;100687.63;5005626;28;20417;-80
2023/10/15 00:10:19;;;;;;;0.30;0.30;;;;;;;16.43;50.52;100681.22;4990417;28;20469;-79
2023/10/15 00:12:52;;;;;;;0.50;0.50;;;;;;;16.49;50.48;100684.91;4990573;28;20822;-81
2023/10/15 00:15:27;;;;;;;0.25;0.25;;;;;;;16.52;50.21;100682.63;4989317;28;20401;-78
2023/10/15 00:18:00;;;;;;;0.30;0.30;;;;;;;16.49;50.29;100684.91;4989701;28;20401;-77
2023/10/15 00:20:38;;;;;;;0.30;0.30;;;;;;;16.51;50.19;100686.38;4973627;28;20401;-78
2023/10/15 00:23:06;;;;;;;0.45;0.45;;;;;;;16.47;50.15;100674.41;4989322;28;20808;-77
2023/10/15 00:25:37;;;;;;;0.40;0.40;;;;;;;16.48;50.24;100683.28;4989388;28;20485;-77
2023/10/15 00:28:12;;;;;;;1.10;1.00;;;;;;;16.47;50.07;100682.44;5005344;28;20415;-79
2023/10/15 00:30:39;;;;;;;0.28;0.28;;;;;;;16.49;49.96;100683.06;5005739;28;20404;-77
2023/10/15 00:33:11;;;;;;;0.50;0.50;;;;;;;16.46;49.98;100683.50;4989501;28;20393;-81
2023/10/15 00:35:40;;;;;;;0.60;0.60;;;;;;;16.17;51.18;100680.25;5006357;28;20428;-80
2023/10/15 00:38:16;;;;;;;0.70;0.40;;;;;;;16.04;51.50;100674.91;4991608;28;20413;-77
2023/10/15 00:40:45;;;;;;;0.60;0.60;;;;;;;16.00;51.91;100677.16;4989371;28;20389;-80
2023/10/15 00:43:14;;;;;;;0.60;0.60;;;;;;;16.00;51.63;100676.34;4990047;28;20386;-78
2023/10/15 00:45:45;;;;;;;0.60;0.60;;;;;;;16.13;51.41;100678.19;4988538;28;20437;-79
2023/10/15 00:48:19;;;;;;;0.20;0.20;;;;;;;16.21;51.01;100670.78;4989599;28;20781;-81
2023/10/15 00:50:47;;;;;;;0.38;0.38;;;;;;;16.31;50.74;100673.00;5004715;28;20440;-78
2023/10/15 00:53:28;;;;;;;0.40;0.40;;;;;;;16.32;50.48;100672.00;4989057;28;20479;-78
2023/10/15 00:56:10;;;;;;;0.57;0.57;;;;;;;16.28;50.40;100665.41;4989140;28;20405;-81
2023/10/15 01:03:54;;;;;;;0.40;0.40;;;;;;;16.32;50.03;100663.16;4990492;28;20381;-78
2023/10/15 01:08:52;;;;;;;0.60;0.60;;;;;;;16.16;50.69;100653.72;4990303;28;20381;-77
2023/10/15 01:11:18;;;;;;;0.30;0.30;;;;;;;16.05;51.18;100649.81;4988953;28;20401;-77
2023/10/15 01:13:44;;;;;;;0.70;0.60;;;;;;;15.96;51.66;100657.22;4988838;28;20904;-79
2023/10/15 01:16:17;;;;;;;0.50;0.40;;;;;;;15.80;52.07;100646.94;4990493;28;20814;-77
2023/10/15 01:19:05;;;;;;;0.40;0.40;;;;;;;15.91;52.05;100656.19;4993246;28;20403;-78
2023/10/15 01:21:32;;;;;;;0.55;0.55;;;;;;;15.75;52.48;100649.41;4993964;28;20776;-80
2023/10/15 01:24:07;;;;;;;0.70;0.70;;;;;;;15.80;52.39;100657.66;4993626;28;20381;-81
2023/10/15 01:26:39;;;;;;;0.60;0.60;;;;;;;15.91;52.16;100656.19;4992435;28;20410;-80
2023/10/15 01:29:08;;;;;;;0.50;0.50;;;;;;;15.95;51.94;100652.09;4993454;28;20800;-81
2023/10/15 01:31:49;;;;;;;0.30;0.30;;;;;;;15.93;51.45;100651.47;4993217;28;20999;-80
2023/10/15 01:34:20;;;;;;;1.25;0.88;;;;;;;15.98;51.56;100655.16;4993315;28;20385;-80
2023/10/15 01:36:47;;;;;;;0.57;0.57;;;;;;;15.91;51.56;100649.00;4990472;28;20481;-80
2023/10/15 01:39:15;;;;;;;1.05;0.55;;;;;;;15.86;51.65;100654.97;4974568;28;20481;-81
2023/10/15 01:42:03;;;;;;;0.40;0.40;;;;;;;15.86;51.80;100652.31;4959467;28;20809;-78
2023/10/15 01:44:30;;;;;;;1.00;0.40;;;;;;;15.93;51.87;100651.47;4990083;28;20429;-77
2023/10/15 01:49:31;;;;;;;0.43;0.38;;;;;;;16.08;51.11;100652.09;4974856;28;20793;-78
2023/10/15 01:52:13;;;;;;;0.52;0.52;;;;;;;16.12;50.86;100649.81;4989350;28;20393;-78
2023/10/15 01:54:45;;;;;;;0.30;0.30;;;;;;;16.14;50.86;100651.25;4973906;28;20394;-78
2023/10/15 01:57:14;;;;;;;0.30;0.30;;;;;;;16.13;50.76;100654.94;4974005;28;20513;-80
2023/10/15 01:59:49;;;;;;;0.20;0.20;;;;;;;16.13;50.66;100662.13;4989211;28;20968;-80
2023/10/15 02:02:18;;;;;;;0.25;0.25;;;;;;;16.12;50.86;100664.00;4989549;28;20440;-81
2023/10/15 02:04:44;;;;;;;0.77;0.77;;;;;;;16.04;50.75;100662.38;4990273;28;20394;-79
2023/10/15 02:07:19;;;;;;;0.40;0.40;;;;;;;15.97;51.16;100650.84;4990254;28;21023;-78
2023/10/15 02:09:51;;;;;;;0.63;0.63;;;;;;;15.99;51.03;100653.31;4990161;28;20401;-77
2023/10/15 02:12:18;;;;;;;0.30;0.30;;;;;;;16.01;50.85;100653.94;4990141;28;20397;-79
2023/10/15 02:14:48;;;;;;;0.35;0.30;;;;;;;16.05;50.79;100663.19;4989703;28;20930;-77
2023/10/15 02:17:18;;;;;;;0.20;0.20;;;;;;;16.05;50.64;100657.84;4989812;28;20524;-80
2023/10/15 02:19:46;;;;;;;0.50;0.50;;;;;;;16.00;50.60;100668.31;4990334;28;20401;-79
2023/10/15 02:22:12;;;;;;;0.23;0.23;;;;;;;15.92;51.19;100668.53;4992324;28;20425;-77
2023/10/15 02:24:49;;;;;;;1.10;0.40;;;;;;;15.94;51.05;100655.78;5007847;28;20425;-77
2023/10/15 02:27:25;;;;;;;0.40;0.40;;;;;;;16.01;50.84;100664.63;5007672;28;20409;-79
2023/10/15 02:30:08;;;;;;;1.25;1.15;;;;;;;16.04;50.77;100664.19;4993828;28;20398;-77
2023/10/15 02:32:42;;;;;;;0.20;0.20;;;;;;;15.96;50.87;100659.09;4991301;28;20398;-81
2023/10/15 02:35:13;;;;;;;0.28;0.28;;;;;;;15.91;50.86;100657.00;4992508;28;20398;-78
2023/10/15 02:37:46;;;;;;;0.30;0.30;;;;;;;15.94;51.02;100656.63;4989832;28;20440;-78
2023/10/15 02:40:17;;;;;;;0.30;0.30;;;;;;;15.93;50.70;100652.28;4973973;28;20521;-79
2023/10/15 02:42:54;;;;;;;0.30;0.30;;;;;;;15.94;50.92;100656.63;4989745;28;20458;-78
2023/10/15 02:45:23;;;;;;;0.40;0.40;;;;;;;15.93;50.81;100654.13;4989681;28;20398;-77
2023/10/15 02:47:55;;;;;;;0.30;0.30;;;;;;;15.88;50.84;100644.06;4973250;28;20407;-79
2023/10/15 02:50:26;;;;;;;0.32;0.32;;;;;;;15.86;50.77;100644.28;4989747;28;20409;-78
2023/10/15 02:52:54;;;;;;;0.30;0.30;;;;;;;15.72;50.94;100645.28;4991340;28;20389;-79
2023/10/15 02:55:26;;;;;;;0.30;0.30;;;;;;;15.70;51.27;100649.19;4989742;28;20449;-78
2023/10/15 02:57:52;;;;;;;0.30;0.30;;;;;;;15.71;51.14;100648.16;4973413;28;20393;-78
2023/10/15 03:00:28;;;;;;;0.30;0.30;;;;;;;15.74;51.23;100651.28;4989469;28;20456;-78
2023/10/15 03:02:55;;;;;;;0.60;0.50;;;;;;;15.67;51.31;100659.25;4989789;28;20397;-78
2023/10/15 03:05:30;;;;;;;0.57;0.57;;;;;;;15.38;52.93;100675.69;4989911;28;20393;-80
2023/10/15 03:07:56;;;;;;;0.40;0.40;;;;;;;15.28;53.16;100676.03;4973907;28;20513;-80
2023/10/15 03:10:22;;;;;;;0.50;0.50;;;;;;;15.20;53.64;100670.91;4989539;28;20398;-77
2023/10/15 03:12:48;;;;;;;0.30;0.30;;;;;;;15.33;53.41;100678.13;4973097;28;20821;-80
2023/10/15 03:15:17;;;;;;;0.40;0.40;;;;;;;15.44;52.68;100675.66;4991657;28;20536;-78
2023/10/15 03:17:46;;;;;;;0.82;0.60;;;;;;;15.51;52.44;100673.00;4990082;28;20404;-78
2023/10/15 03:23:05;;;;;;;0.50;0.50;;;;;;;15.51;52.02;100664.19;4953715;28;21030;-81
2023/10/15 03:25:34;;;;;;;0.40;0.40;;;;;;;15.46;52.07;100652.22;4989524;28;20893;-77
2023/10/15 03:28:02;;;;;;;0.30;0.30;;;;;;;15.46;51.93;100662.91;4980396;28;20511;-78
2023/10/15 03:30:28;;;;;;;0.20;0.20;;;;;;;15.48;51.92;100660.06;4992056;28;20385;-78
2023/10/15 03:33:00;;;;;;;0.20;0.20;;;;;;;15.47;51.87;100658.41;4991500;28;20463;-79
2023/10/15 03:35:45;;;;;;;0.30;0.30;;;;;;;15.48;51.75;100665.41;4991289;28;20401;-80
2023/10/15 03:38:14;;;;;;;0.28;0.28;;;;;;;15.47;51.63;100645.88;4979702;28;20421;-75
2023/10/15 03:40:47;;;;;;;0.28;0.28;;;;;;;15.46;51.88;100649.56;4990613;28;20428;-79
2023/10/15 03:43:22;;;;;;;0.22;0.17;;;;;;;15.47;51.59;100653.09;4990026;28;20398;-81
2023/10/15 03:45:50;;;;;;;0.20;0.20;;;;;;;15.45;51.77;100639.09;4990639;28;20901;-83
2023/10/15 03:48:31;;;;;;;0.68;0.68;;;;;;;15.52;51.63;100641.75;5006578;28;20402;-81
2023/10/15 03:50:58;;;;;;;0.30;0.30;;;;;;;15.56;51.45;100651.03;4988405;28;20408;-85
2023/10/15 03:53:28;;;;;;;0.20;0.20;;;;;;;15.52;51.53;100641.75;4988706;28;20409;-78
2023/10/15 03:56:04;;;;;;;0.28;0.28;;;;;;;15.52;51.46;100642.59;4986983;28;20448;-79
2023/10/15 03:58:33;;;;;;;0.35;0.35;;;;;;;15.48;51.62;100644.03;4972917;28;20806;-77
2023/10/15 04:01:17;;;;;;;0.30;0.30;;;;;;;15.46;51.90;100656.75;4988624;28;20398;-77
2023/10/15 04:03:47;;;;;;;0.33;0.33;;;;;;;15.41;52.16;100654.72;4988931;28;20846;-80
2023/10/15 04:06:13;;;;;;;0.20;0.20;;;;;;;15.42;52.01;100653.69;4987578;28;20393;-79
2023/10/15 04:08:39;;;;;;;0.30;0.30;;;;;;;15.44;51.98;100648.94;4972070;28;20436;-81
2023/10/15 04:11:06;;;;;;;0.10;0.10;;;;;;;15.43;52.02;100650.00;4972134;28;20444;-78
2023/10/15 04:13:35;;;;;;;0.32;0.32;;;;;;;15.47;51.90;100645.06;4984096;28;20402;-77
2023/10/15 04:16:01;;;;;;;0.20;0.20;;;;;;;15.47;51.90;100637.88;4976124;28;20527;-80
2023/10/15 04:18:29;;;;;;;2.15;1.25;;;;;;;15.52;51.81;100639.09;4968503;28;20506;-79
2023/10/15 04:20:56;;;;;;;0.28;0.28;;;;;;;15.48;51.53;100639.53;4985711;28;20408;-80
2023/10/15 04:23:30;;;;;;;0.20;0.20;;;;;;;15.48;51.68;100639.53;4969046;28;20415;-78
2023/10/15 04:26:07;;;;;;;0.30;0.30;;;;;;;15.43;51.78;100639.31;4985098;28;20411;-80
2023/10/15 04:28:34;;;;;;;0.40;0.40;;;;;;;15.46;51.72;100644.22;4969062;28;20427;-77
2023/10/15 04:31:00;;;;;;;0.50;0.40;;;;;;;15.43;51.75;100654.50;4970075;28;20392;-81
2023/10/15 04:33:28;;;;;;;0.40;0.40;;;;;;;15.33;51.99;100643.41;4970405;28;20402;-83
2023/10/15 04:35:56;;;;;;;0.28;0.25;;;;;;;15.35;51.98;100639.50;4971506;28;20418;-82
2023/10/15 04:38:38;;;;;;;0.50;0.50;;;;;;;15.36;51.79;100643.81;4968776;28;20827;-78
2023/10/15 04:41:07;;;;;;;0.32;0.32;;;;;;;15.37;51.64;100639.28;4970818;28;20391;-77
2023/10/15 04:43:41;;;;;;;0.40;0.40;;;;;;;15.38;51.67;100635.59;4969737;28;20433;-76
2023/10/15 04:46:17;;;;;;;0.38;0.38;;;;;;;15.43;51.79;100638.47;4985402;28;20461;-79
2023/10/15 04:48:50;;;;;;;0.55;0.55;;;;;;;15.38;51.82;100647.09;4970833;28;20438;-80
2023/10/15 04:51:16;;;;;;;0.37;0.37;;;;;;;15.34;51.97;100637.88;4985889;28;20403;-83
2023/10/15 04:53:44;;;;;;;0.30;0.30;;;;;;;15.41;52.03;100637.84;4975624;28;20387;-82
2023/10/15 04:56:12;;;;;;;0.38;0.30;;;;;;;15.41;52.17;100638.69;4985007;28;20485;-79
2023/10/15 04:58:38;;;;;;;0.30;0.30;;;;;;;15.40;52.08;100633.56;4991967;28;20401;-80
2023/10/15 05:01:11;;;;;;;0.40;0.30;;;;;;;15.42;51.90;100637.66;4991665;28;20513;-79
2023/10/15 05:03:38;;;;;;;0.50;0.30;;;;;;;15.42;52.14;100634.97;4991602;28;20410;-79
2023/10/15 05:06:10;;;;;;;0.20;0.20;;;;;;;15.43;52.17;100639.31;4993269;28;20474;-80
2023/10/15 05:08:40;;;;;;;0.30;0.30;;;;;;;15.47;52.05;100643.22;4976378;28;21097;-80
2023/10/15 05:11:09;;;;;;;0.50;0.50;;;;;;;15.49;52.17;100645.69;4970196;28;20458;-80
2023/10/15 05:13:34;;;;;;;0.30;0.30;;;;;;;15.49;52.28;100654.50;4975032;28;20453;-81
2023/10/15 05:16:00;;;;;;;0.20;0.20;;;;;;;15.54;52.22;100653.91;4989722;28;20803;-81
2023/10/15 05:18:29;;;;;;;0.30;0.30;;;;;;;15.51;52.39;100642.81;4972538;28;20418;-81
2023/10/15 05:20:55;;;;;;;0.50;0.50;;;;;;;15.57;52.31;100653.47;4982719;28;20413;-81
2023/10/15 05:23:22;;;;;;;0.20;0.20;;;;;;;15.62;52.21;100656.38;4972902;28;20390;-80
2023/10/15 05:25:54;;;;;;;0.30;0.30;;;;;;;15.65;52.35;100642.59;4990665;28;20973;-82
2023/10/15 05:28:21;;;;;;;0.30;0.30;;;;;;;15.76;52.32;100651.06;4992599;28;20406;-81
2023/10/15 05:30:49;;;;;;;0.28;0.28;;;;;;;15.78;52.15;100639.13;4992155;28;21211;-82
2023/10/15 05:33:16;;;;;;;0.20;0.20;;;;;;;15.80;52.44;100638.94;4992796;28;20401;-80
2023/10/15 05:35:48;;;;;;;0.25;0.25;;;;;;;15.88;52.30;100643.25;5009235;28;20773;-80
2023/10/15 05:38:16;;;;;;;0.45;0.45;;;;;;;15.93;52.33;100638.91;5008595;28;20406;-78
2023/10/15 05:40:48;;;;;;;0.35;0.35;;;;;;;15.97;52.41;100642.84;4981775;28;20388;-79
2023/10/15 05:43:14;;;;;;;0.40;0.40;;;;;;;16.09;52.39;100650.22;4991739;28;20401;-76
2023/10/15 05:45:39;;;;;;;0.30;0.30;;;;;;;16.13;52.53;100654.94;4992300;28;20892;-80
2023/10/15 05:48:07;;;;;;;0.70;0.70;;;;;;;16.24;52.20;100661.50;4987641;28;20409;-80
2023/10/15 05:50:32;;;;;;;0.30;0.30;;;;;;;16.27;52.19;100650.38;4994649;28;20491;-85
2023/10/15 05:53:08;;;;;;;0.57;0.57;;;;;;;16.32;52.10;100645.25;4948803;28;20431;-80
2023/10/15 05:55:34;;;;;;;0.25;0.25;;;;;;;16.36;52.16;100643.78;5011338;28;20910;-81
2023/10/15 05:58:06;;;;;;;0.30;0.30;;;;;;;16.36;52.27;100641.09;5019134;28;20392;-79
2023/10/15 06:00:37;;;;;;;0.20;0.20;;;;;;;16.39;52.58;100651.41;4989040;28;20430;-83
2023/10/15 06:03:07;;;;;;;1.25;1.15;;;;;;;16.50;52.36;100652.59;4957985;28;20418;-79
2023/10/15 06:05:33;;;;;;;0.50;0.50;;;;;;;16.46;52.44;100647.88;4942395;28;20409;-81
2023/10/15 06:07:59;;;;;;;0.22;0.20;;;;;;;16.50;52.52;100649.94;4990268;28;20425;-79
2023/10/15 06:10:35;;;;;;;0.40;0.40;;;;;;;16.63;52.34;100647.19;4958160;28;20394;-82
2023/10/15 06:13:01;;;;;;;0.20;0.20;;;;;;;16.78;52.10;100654.97;4991026;28;20401;-81
2023/10/15 06:15:37;;;;;;;1.30;1.10;;;;;;;16.79;52.09;100648.56;4992720;28;20382;-83
2023/10/15 06:18:04;;;;;;;0.60;0.60;;;;;;;16.91;51.89;100646.09;4959494;28;21032;-85
2023/10/15 06:20:33;;;;;;;0.40;0.40;;;;;;;16.92;51.85;100638.88;4959525;28;20390;-80
2023/10/15 06:23:08;;;;;;;0.40;0.40;;;;;;;16.93;52.01;100635.97;4991564;28;20495;-86
2023/10/15 06:25:38;;;;;;;0.40;0.40;;;;;;;17.03;51.69;100632.84;4951954;29;20780;-80
2023/10/15 06:28:05;;;;;;;0.20;0.20;;;;;;;17.10;51.76;100633.63;4952509;29;20421;-79
2023/10/15 06:30:31;;;;;;;0.22;0.22;;;;;;;17.18;51.46;100638.72;4936564;29;20421;-82
2023/10/15 06:32:56;;;;;;;0.30;0.30;;;;;;;17.20;51.44;100631.28;4952740;29;20472;-82
2023/10/15 06:35:25;;;;;;;0.20;0.20;;;;;;;17.29;51.21;100631.06;4952355;29;20424;-79
2023/10/15 06:37:57;;;;;;;0.30;0.30;;;;;;;17.39;50.90;100626.00;4952856;28;21020;-84
2023/10/15 06:40:24;;;;;;;0.95;0.88;;;;;;;17.54;50.85;100637.25;4974336;28;20422;-82
2023/10/15 06:43:00;;;;;;;0.30;0.30;;;;;;;17.65;50.65;100626.88;4972574;28;20389;-82
2023/10/15 06:45:31;;;;;;;0.35;0.35;;;;;;;17.74;50.46;100620.19;4988846;28;20393;-80
2023/10/15 06:48:00;;;;;;;0.20;0.20;;;;;;;17.82;50.32;100622.56;4990148;28;20497;-81
2023/10/15 06:50:30;;;;;;;1.60;0.40;;;;;;;17.90;50.35;100619.66;4989086;28;20416;-79
2023/10/15 06:52:57;;;;;;;0.30;0.30;;;;;;;17.91;50.22;100612.41;4988829;28;20482;-80
2023/10/15 06:55:22;;;;;;;0.20;0.20;;;;;;;17.94;50.11;100610.13;4990685;28;20397;-80
2023/10/15 06:57:49;;;;;;;0.40;0.30;;;;;;;18.05;50.03;100611.25;5009576;28;20505;-80
2023/10/15 07:00:21;;;;;;;0.28;0.28;;;;;;;18.17;49.77;100608.66;4977214;28;20404;-82
2023/10/15 07:02:49;;;;;;;0.32;0.32;;;;;;;18.20;49.82;100612.75;4994128;28;20432;-79
2023/10/15 07:05:20;;;;;;;0.20;0.20;;;;;;;18.28;49.66;100618.66;4993008;28;20392;-80
2023/10/15 07:07:46;;;;;;;0.28;0.28;;;;;;;18.33;49.51;100604.56;5009102;28;20435;-82
2023/10/15 07:10:16;;;;;;;0.30;0.30;;;;;;;18.55;49.50;100615.66;5009367;28;20470;-79
2023/10/15 07:12:47;;;;;;;0.45;0.40;;;;;;;18.72;49.47;100615.84;4969003;28;20399;-80
2023/10/15 07:15:18;;;;;;;0.55;0.55;;;;;;;18.84;49.36;100621.31;4953036;28;20394;-79
2023/10/15 07:17:46;;;;;;;0.30;0.30;;;;;;;18.88;49.35;100617.94;4969660;28;21004;-80
2023/10/15 07:20:21;;;;;;;0.20;0.20;;;;;;;18.95;49.31;100609.78;4970137;28;20395;-81
2023/10/15 07:22:49;;;;;;;0.30;0.20;;;;;;;18.86;49.44;100603.09;4955744;28;20411;-80
2023/10/15 07:25:17;;;;;;;0.53;0.43;;;;;;;18.85;49.40;100596.09;4970472;28;20399;-80
2023/10/15 07:27:45;;;;;;;0.43;0.43;;;;;;;18.87;49.03;100584.09;4954333;28;21017;-79
2023/10/15 07:30:13;;;;;;;0.20;0.20;;;;;;;18.98;49.23;100595.06;4969731;28;20446;-81
2023/10/15 07:32:43;;;;;;;0.85;0.75;;;;;;;19.17;49.25;100601.22;4969772;28;20383;-82
2023/10/15 07:35:11;;;;;;;0.10;0.10;;;;;;;19.38;49.16;100599.88;4978774;28;20531;-81
2023/10/15 07:37:45;;;;;;;0.22;0.22;;;;;;;19.51;48.97;100593.47;4989698;28;20402;-81
2023/10/15 07:40:17;;;;;;;0.53;0.53;;;;;;;19.42;49.08;100591.09;4974608;28;20492;-85
2023/10/15 07:43:00;;;;;;;0.28;0.28;;;;;;;19.40;49.08;100595.91;4960589;28;20416;-81
2023/10/15 07:45:27;;;;;;;0.50;0.33;;;;;;;19.48;48.98;100587.50;5010486;28;20399;-80
2023/10/15 07:47:56;;;;;;;0.30;0.30;;;;;;;19.59;48.88;100575.13;5009896;28;20487;-82
2023/10/15 07:50:23;;;;;;;0.50;0.50;;;;;;;19.55;48.70;100579.31;5011306;28;20775;-80
2023/10/15 07:52:50;;;;;;;0.20;0.20;;;;;;;19.57;48.54;100579.91;5011387;28;20461;-79
2023/10/15 07:55:17;;;;;;;0.30;0.30;;;;;;;19.80;48.26;100581.00;5011257;28;20395;-79
2023/10/15 07:57:43;;;;;;;0.30;0.30;;;;;;;19.80;48.19;100568.34;5008797;28;20402;-79
2023/10/15 08:00:33;;;;;;;0.20;0.20;;;;;;;19.93;48.22;100577.22;4975784;28;20784;-79
2023/10/15 08:02:57;;;;;;;1.10;0.50;;;;;;;20.00;48.21;100577.94;5008040;28;20886;-80
2023/10/15 08:05:24;;;;;;;0.30;0.30;;;;;;;20.02;48.23;100567.75;5008222;28;20965;-80
2023/10/15 08:07:51;;;;;;;0.43;0.38;;;;;;;20.12;48.00;100565.28;5027565;28;20432;-80
2023/10/15 08:10:17;;;;;;;0.40;0.40;;;;;;;20.15;48.02;100567.50;4995252;28;20476;-82
2023/10/15 08:12:48;;;;;;;0.28;0.28;;;;;;;20.24;47.97;100567.97;5027667;28;20901;-80
2023/10/15 08:15:16;;;;;;;0.10;0.10;;;;;;;20.59;47.38;100572.41;5027648;28;20889;-80
2023/10/15 08:17:42;;;;;;;0.60;0.60;;;;;;;20.58;47.41;100563.53;5027898;28;20405;-81
2023/10/15 08:20:09;;;;;;;0.40;0.40;;;;;;;20.53;47.45;100559.91;5027475;28;20402;-80
2023/10/15 08:22:44;;;;;;;0.25;0.25;;;;;;;20.56;47.63;100564.81;5011898;28;20933;-80
2023/10/15 08:25:18;;;;;;;0.80;0.45;;;;;;;21.04;46.85;100568.94;5028170;28;20409;-80
2023/10/15 08:27:48;;;;;;;0.57;0.20;;;;;;;21.17;46.42;100552.44;5013278;28;20422;-82
2023/10/15 08:30:15;;;;;;;0.30;0.30;;;;;;;21.02;46.98;100551.41;5014812;28;20392;-77
2023/10/15 08:32:44;;;;;;;0.30;0.30;;;;;;;21.06;47.28;100549.84;5007600;28;20476;-81
2023/10/15 08:35:13;;;;;;;0.20;0.20;;;;;;;21.31;46.35;100539.47;4991729;28;20455;-79
2023/10/15 08:37:40;;;;;;;0.30;0.30;;;;;;;21.90;45.63;100547.09;4991062;28;20399;-80
2023/10/15 08:40:07;;;;;;;0.80;0.30;;;;;;;22.41;43.83;100536.13;4984842;28;20506;-79
2023/10/15 08:42:39;;;;;;;0.30;0.30;;;;;;;22.84;42.95;100528.22;4968640;28;20403;-78
2023/10/15 08:45:07;;;;;;;0.38;0.35;;;;;;;23.07;42.67;100525.19;4968719;28;20874;-79
2023/10/15 08:47:36;;;;;;;1.40;0.60;;;;;;;23.33;41.99;100528.09;4951551;28;21000;-82
2023/10/15 08:50:06;;;;;;;0.20;0.20;;;;;;;23.38;42.22;100511.91;4997217;28;20490;-82
2023/10/15 08:52:39;;;;;;;0.70;0.60;;;;;;;23.58;41.53;100515.81;4951628;28;20434;-79
2023/10/15 08:55:10;;;;;;;0.82;0.45;;;;;;;23.83;41.76;100509.75;4967465;28;20830;-79
2023/10/15 08:57:44;;;;;;;0.52;0.40;;;;;;;23.95;40.87;100509.53;4967525;28;20551;-80
2023/10/15 09:00:25;;;;;;;2.30;0.90;;;;;;;24.14;40.59;100507.97;4983353;28;20502;-80
2023/10/15 09:02:56;;;;;;;0.57;0.30;;;;;;;24.26;40.59;100506.94;4968393;28;20431;-81
2023/10/15 09:05:44;;;;;;;0.40;0.40;;;;;;;24.45;40.24;100510.78;4968703;28;20423;-80
2023/10/15 09:08:13;;;;;;;0.75;0.40;;;;;;;24.40;40.44;100511.59;4953060;28;20550;-80
2023/10/15 09:10:46;;;;;;;0.50;0.40;;;;;;;24.45;40.38;100496.41;5002795;28;20914;-81
2023/10/15 09:13:21;;;;;;;0.55;0.40;;;;;;;24.35;39.04;100505.34;5025165;28;20496;-80
2023/10/15 09:15:48;;;;;;;0.47;0.40;;;;;;;24.65;39.50;100501.91;5010163;28;20915;-80
2023/10/15 09:18:16;;;;;;;0.50;0.30;;;;;;;24.56;39.92;100501.63;5009051;28;20392;-80
2023/10/15 09:20:51;;;;;;;0.37;0.30;;;;;;;24.77;39.63;100498.94;5008641;28;20454;-81
2023/10/15 09:23:37;;;;;;;0.70;0.63;;;;;;;24.90;39.64;100497.56;5009646;28;21001;-79
2023/10/15 09:26:10;;;;;;;0.80;0.52;;;;;;;25.03;39.33;100498.94;5009863;28;20483;-81
2023/10/15 09:28:38;;;;;;;0.70;0.40;;;;;;;25.12;38.88;100481.03;5009884;28;20510;-81
2023/10/15 09:31:11;;;;;;;0.90;0.60;;;;;;;25.27;38.32;100477.53;5010177;28;20775;-80
2023/10/15 09:33:42;;;;;;;6.25;0.90;;;;;;;25.38;37.96;100487.25;5008701;28;20388;-80
2023/10/15 09:36:08;;;;;;;0.82;0.50;;;;;;;25.36;37.69;100479.41;4994737;28;20405;-80
2023/10/15 09:38:35;;;;;;;0.60;0.30;;;;;;;25.43;37.25;100470.97;5011904;28;20754;-80
2023/10/15 09:41:02;;;;;;;1.02;0.50;;;;;;;25.42;37.33;100474.75;5013731;28;20415;-80
2023/10/15 09:43:31;;;;;;;0.80;0.40;;;;;;;25.51;37.48;100475.81;5012659;28;20439;-80
2023/10/15 09:45:58;;;;;;;0.40;0.30;;;;;;;25.57;37.22;100468.50;5012876;28;20410;-80
2023/10/15 09:48:25;;;;;;;0.70;0.65;;;;;;;25.65;37.17;100467.91;5012054;28;20891;-80
2023/10/15 09:50:56;;;;;;;1.20;0.80;;;;;;;25.60;36.96;100467.13;5013952;28;20468;-81
2023/10/15 09:53:23;;;;;;;0.70;0.47;;;;;;;25.64;36.60;100450.03;5012418;28;20431;-80
2023/10/15 09:55:51;;;;;;;0.77;0.40;;;;;;;25.68;37.24;100461.13;4995786;28;20403;-80
2023/10/15 09:58:17;;;;;;;0.52;0.30;;;;;;;25.65;36.63;100450.81;5015302;28;20467;-80
2023/10/15 10:03:47;;;;;;;0.73;0.50;;;;;;;25.84;36.93;100446.41;5012836;28;20392;-81
2023/10/15 10:06:36;;;;;;;1.60;0.50;;;;;;;25.81;36.74;100446.94;5011708;28;20921;-80
2023/10/15 10:09:23;;;;;;;0.65;0.40;;;;;;;25.90;36.24;100448.00;5013018;28;20404;-80
2023/10/15 10:12:11;;;;;;;0.95;0.50;;;;;;;26.00;36.17;100432.75;5013016;28;20407;-80
2023/10/15 10:14:55;;;;;;;0.83;0.40;;;;;;;26.11;36.21;100434.34;5013162;28;20380;-79
2023/10/15 10:17:23;;;;;;;1.00;0.65;;;;;;;25.95;35.77;100425.47;5013266;28;20454;-81
2023/10/15 10:19:55;;;;;;;1.05;0.50;;;;;;;26.11;36.16;100418.06;4995409;28;20388;-80
2023/10/15 10:22:32;;;;;;;0.40;0.30;;;;;;;26.14;36.03;100414.75;4995942;28;20408;-81
2023/10/15 10:25:03;;;;;;;1.10;0.60;;;;;;;25.95;35.12;100420.03;5012597;28;20891;-80
2023/10/15 10:27:40;;;;;;;1.08;0.70;;;;;;;25.88;35.19;100425.75;5011386;28;20416;-80
2023/10/15 10:30:29;;;;;;;1.33;0.57;;;;;;;26.03;35.13;100411.28;5011547;28;20407;-79
2023/10/15 10:33:02;;;;;;;1.13;0.57;;;;;;;26.03;34.54;100402.34;5011119;28;20392;-81
2023/10/15 10:35:27;;;;;;;1.00;0.50;;;;;;;26.21;34.81;100404.38;5012302;28;20395;-81
2023/10/15 10:38:14;;;;;;;1.77;1.00;;;;;;;26.17;34.71;100392.47;4995052;28;20810;-82
2023/10/15 10:41:04;;;;;;;0.75;0.40;;;;;;;26.22;34.11;100399.78;4994903;28;20458;-82
2023/10/15 10:43:30;;;;;;;0.93;0.57;;;;;;;26.29;33.81;100394.84;4996413;28;20416;-81
2023/10/15 10:46:01;;;;;;;0.82;0.45;;;;;;;26.24;34.16;100394.88;5011494;28;20392;-82
2023/10/15 10:48:37;;;;;;;0.90;0.40;;;;;;;26.39;33.90;100393.94;5010826;28;20936;-80
2023/10/15 10:51:21;;;;;;;0.67;0.37;;;;;;;26.38;34.17;100386.88;5010674;28;20434;-79
2023/10/15 10:54:16;;;;;;;0.93;0.43;;;;;;;26.43;34.21;100378.69;5012172;28;20399;-79
2023/10/15 10:57:07;;;;;;;0.77;0.50;;;;;;;26.40;34.10;100376.53;5003956;28;20427;-79
2023/10/15 10:59:43;;;;;;;0.55;0.43;;;;;;;26.37;33.87;100364.31;5012359;28;20423;-79
2023/10/15 11:02:11;;;;;;;0.65;0.40;;;;;;;26.62;33.90;100366.03;5007504;28;20408;-80
2023/10/15 11:04:39;;;;;;;0.33;0.30;;;;;;;26.67;33.67;100366.00;5010724;28;20500;-80
2023/10/15 11:07:07;;;;;;;0.53;0.43;;;;;;;26.59;33.63;100354.91;5010196;28;20732;-80
2023/10/15 11:09:38;;;;;;;0.75;0.45;;;;;;;26.65;33.64;100348.34;5011806;28;20392;-79
2023/10/15 11:12:06;;;;;;;0.70;0.60;;;;;;;26.69;33.47;100347.47;5010692;28;20475;-80
2023/10/15 11:14:32;;;;;;;0.57;0.50;;;;;;;26.75;33.39;100348.25;5010777;28;20415;-79
2023/10/15 11:16:58;;;;;;;0.60;0.43;;;;;;;26.83;33.33;100334.03;5011631;28;20387;-80
2023/10/15 11:19:37;;;;;;;0.70;0.50;;;;;;;26.98;33.17;100343.94;5011642;28;20392;-80
2023/10/15 11:22:03;;;;;;;0.95;0.45;;;;;;;26.88;33.26;100342.13;5010787;28;20412;-81
2023/10/15 11:24:30;;;;;;;0.85;0.50;;;;;;;26.98;33.16;100327.59;5010310;28;20446;-81
2023/10/15 11:27:01;;;;;;;0.47;0.30;;;;;;;27.01;33.18;100334.38;5011694;28;20412;-80
2023/10/15 11:29:27;;;;;;;0.60;0.50;;;;;;;27.03;33.28;100324.81;5011247;28;21142;-80
2023/10/15 11:31:59;;;;;;;1.10;0.65;;;;;;;27.06;32.82;100312.53;4994076;28;20522;-80
2023/10/15 11:34:31;;;;;;;0.70;0.57;;;;;;;27.17;33.14;100324.13;4994275;28;20415;-80
2023/10/15 11:36:57;;;;;;;0.70;0.70;;;;;;;27.14;32.62;100320.09;4994039;28;20426;-80
2023/10/15 11:39:29;;;;;;;1.35;0.80;;;;;;;27.14;32.73;100319.28;5010192;28;20902;-79
2023/10/15 11:41:57;;;;;;;1.30;1.20;;;;;;;27.11;32.59;100317.94;5008445;28;20403;-81
2023/10/15 11:45:16;;;;;;;0.47;0.40;;;;;;;27.24;32.44;100317.25;5008814;28;20914;-80
2023/10/15 11:47:15;;;;;;;0.98;0.50;;;;;;;27.39;32.41;100310.81;4995519;28;20510;-79
2023/10/15 11:49:44;;;;;;;1.23;0.90;;;;;;;27.54;32.39;100317.16;4992790;28;20942;-79
2023/10/15 11:52:18;;;;;;;2.75;0.70;;;;;;;27.64;32.30;100312.38;4993723;28;20824;-82
2023/10/15 11:54:51;;;;;;;0.80;0.40;;;;;;;27.64;32.17;100315.09;4977466;28;21061;-82
2023/10/15 11:57:22;;;;;;;1.03;0.70;;;;;;;27.69;32.37;100305.22;4993438;28;20498;-79